Rogue River, Oregon
Current Conditions -  °F | °C
As of 5:56 AM on Monday 26 Jan 2015 (Local Time) from KSXT Reporting Station
Clear Clear  
Wind Chill: 56°   Ceiling: Unl
Heat Index: 56°   Visibility: 10mi
Dew Point: 29°   Wind: 15mph
Humidity: 36%   Direction: 180°S
Pressure: 30.06"   Gusts: NA
Location:  42.44°N, 123.17°W
Report Text: KSXT 261356Z AUTO 18013KT 10SM CLR 13/M02 A3006 RMK AO2 SLP149 T01331017
Loading
Personal Weather Stations






























Interactive Weather Map New forecast layout! Learn more

10-Day Weather Forecast

Advertisements
Track Severe Weather on mobile